createdAt,value
2023-05-08T00:00:19.394Z,5.10
2023-05-08T00:02:46.780Z,4.75
2023-05-08T00:05:14.174Z,4.65
2023-05-08T00:07:41.475Z,4.97
2023-05-08T00:10:10.415Z,4.97
2023-05-08T00:12:37.826Z,5.10
2023-05-08T00:15:05.987Z,5.15
2023-05-08T00:17:34.194Z,4.75
2023-05-08T00:20:01.910Z,4.53
2023-05-08T00:22:32.095Z,5.05
2023-05-08T00:24:59.232Z,5.10
2023-05-08T00:27:26.482Z,5.18
2023-05-08T00:29:53.715Z,5.13
2023-05-08T00:32:21.774Z,4.90
2023-05-08T00:34:48.981Z,4.95
2023-05-08T00:37:16.559Z,5.28
2023-05-08T00:39:43.637Z,4.88
2023-05-08T00:42:11.453Z,5.22
2023-05-08T00:44:40.227Z,5.65
2023-05-08T00:47:08.881Z,5.40
2023-05-08T00:49:36.379Z,4.80
2023-05-08T00:52:08.777Z,4.88
2023-05-08T00:54:39.928Z,4.78
2023-05-08T00:57:08.209Z,4.68
2023-05-08T00:59:37.522Z,5.05
2023-05-08T01:02:06.120Z,4.70
2023-05-08T01:04:34.489Z,5.10
2023-05-08T01:07:04.772Z,4.63
2023-05-08T01:09:32.171Z,5.35
2023-05-08T01:12:22.112Z,5.10
2023-05-08T01:15:13.862Z,4.70
2023-05-08T01:18:05.350Z,5.05
2023-05-08T01:20:45.383Z,5.22
2023-05-08T01:23:15.510Z,5.22
2023-05-08T01:25:54.764Z,5.10
2023-05-08T01:28:51.204Z,5.50
2023-05-08T01:31:25.093Z,5.05
2023-05-08T01:34:23.374Z,4.83
2023-05-08T01:37:00.914Z,5.40
2023-05-08T01:39:37.229Z,5.25
2023-05-08T01:42:34.300Z,5.35
2023-05-08T01:45:07.825Z,5.15
2023-05-08T01:47:38.551Z,5.10
2023-05-08T01:50:15.375Z,5.45
2023-05-08T01:52:50.794Z,5.50
2023-05-08T01:55:29.250Z,4.97
2023-05-08T01:57:58.718Z,5.65
2023-05-08T02:00:30.035Z,5.57
2023-05-08T02:03:00.466Z,5.53
2023-05-08T02:05:29.321Z,5.90
2023-05-08T02:07:57.554Z,6.07
2023-05-08T02:10:26.867Z,5.97
2023-05-08T02:12:56.126Z,6.00
2023-05-08T02:15:26.145Z,6.20
2023-05-08T02:17:55.887Z,6.10
2023-05-08T02:20:23.207Z,5.93
2023-05-08T02:22:52.012Z,5.88
2023-05-08T02:25:19.782Z,6.03
2023-05-08T02:27:49.693Z,6.90
2023-05-08T02:30:19.685Z,6.57
2023-05-08T02:32:49.465Z,7.03
2023-05-08T02:35:19.630Z,6.70
2023-05-08T02:37:55.563Z,6.47
2023-05-08T02:40:28.274Z,6.60
2023-05-08T02:42:56.288Z,6.85
2023-05-08T02:45:27.587Z,6.13
2023-05-08T02:48:34.772Z,6.45
2023-05-08T02:51:21.661Z,5.85
2023-05-08T02:54:11.629Z,6.07
2023-05-08T02:56:49.571Z,6.10
2023-05-08T02:59:26.001Z,6.10
2023-05-08T03:02:29.294Z,6.05
2023-05-08T03:05:23.684Z,5.90
2023-05-08T03:08:13.054Z,6.23
2023-05-08T03:10:44.461Z,6.35
2023-05-08T03:13:14.113Z,6.35
2023-05-08T03:15:58.996Z,5.88
2023-05-08T03:18:32.412Z,6.00
2023-05-08T03:21:00.665Z,5.70
2023-05-08T03:23:30.845Z,6.13
2023-05-08T03:25:59.567Z,5.50
2023-05-08T03:28:29.483Z,5.85
2023-05-08T03:30:59.719Z,6.47
2023-05-08T03:33:29.173Z,5.80
2023-05-08T03:35:58.074Z,6.05
2023-05-08T03:38:25.711Z,5.57
2023-05-08T03:40:53.488Z,5.35
2023-05-08T03:43:22.372Z,5.60
2023-05-08T03:45:51.417Z,5.22
2023-05-08T03:48:22.421Z,5.93
2023-05-08T03:50:50.630Z,5.70
2023-05-08T03:53:20.446Z,5.78
2023-05-08T03:55:47.706Z,5.68
2023-05-08T03:58:24.756Z,6.13
2023-05-08T04:01:19.644Z,6.70
2023-05-08T04:04:08.832Z,6.27
2023-05-08T04:06:57.452Z,6.47
2023-05-08T04:09:42.748Z,8.50
2023-05-08T04:12:21.984Z,6.93
2023-05-08T04:14:56.953Z,6.63
2023-05-08T04:17:39.662Z,6.75
2023-05-08T04:20:12.410Z,6.38
2023-05-08T04:22:42.960Z,7.10
2023-05-08T04:25:12.807Z,7.18
2023-05-08T04:27:40.871Z,7.15
2023-05-08T04:30:09.774Z,7.25
2023-05-08T04:32:40.539Z,7.50
2023-05-08T04:35:09.525Z,6.95
2023-05-08T04:37:36.712Z,7.50
2023-05-08T04:40:05.271Z,7.35
2023-05-08T04:42:36.718Z,7.30
2023-05-08T04:45:04.467Z,6.55
2023-05-08T04:47:33.845Z,7.30
2023-05-08T04:50:03.141Z,6.57
2023-05-08T04:52:32.802Z,6.55
2023-05-08T04:54:59.903Z,6.10
2023-05-08T04:57:27.482Z,6.43
2023-05-08T04:59:54.677Z,5.95
2023-05-08T05:02:22.001Z,6.43
2023-05-08T05:04:49.745Z,6.70
2023-05-08T05:07:16.883Z,6.32
2023-05-08T05:09:44.626Z,5.82
2023-05-08T05:12:11.953Z,6.38
2023-05-08T05:14:39.982Z,6.15
2023-05-08T05:17:07.277Z,5.65
2023-05-08T05:19:34.629Z,5.72
2023-05-08T05:22:02.107Z,5.60
2023-05-08T05:24:30.611Z,5.78
2023-05-08T05:26:58.736Z,5.78
2023-05-08T05:29:26.317Z,4.90
2023-05-08T05:31:53.644Z,5.38
2023-05-08T05:34:21.659Z,4.72
2023-05-08T05:36:48.925Z,5.10
2023-05-08T05:39:16.283Z,5.47
2023-05-08T05:41:44.664Z,5.03
2023-05-08T05:44:12.849Z,5.53
2023-05-08T05:46:42.772Z,5.53
2023-05-08T05:49:12.478Z,5.55
2023-05-08T05:51:39.899Z,5.13
2023-05-08T05:54:07.850Z,5.18
2023-05-08T05:56:35.418Z,5.53
2023-05-08T05:59:02.783Z,5.28
2023-05-08T06:01:30.121Z,4.80
2023-05-08T06:03:57.970Z,4.35
2023-05-08T06:06:25.284Z,4.82
2023-05-08T06:08:54.435Z,4.93
2023-05-08T06:11:24.120Z,4.80
2023-05-08T06:13:51.492Z,4.95
2023-05-08T06:16:21.101Z,5.07
2023-05-08T06:18:48.338Z,4.95
2023-05-08T06:21:16.139Z,5.43
2023-05-08T06:23:43.534Z,4.93
2023-05-08T06:26:11.728Z,4.70
2023-05-08T06:28:38.954Z,5.00
2023-05-08T06:31:06.276Z,4.80
2023-05-08T06:33:33.626Z,4.40
2023-05-08T06:36:00.865Z,4.45
2023-05-08T06:38:28.229Z,4.55
2023-05-08T06:40:56.795Z,4.03
2023-05-08T06:43:24.311Z,4.15
2023-05-08T06:45:53.177Z,3.67
2023-05-08T06:48:20.960Z,3.70
2023-05-08T06:50:48.360Z,3.90
2023-05-08T06:53:15.857Z,3.58
2023-05-08T06:55:43.891Z,4.18
2023-05-08T06:58:11.351Z,4.22
2023-05-08T07:00:38.597Z,4.88
2023-05-08T07:03:05.720Z,4.70
2023-05-08T07:05:33.071Z,4.38
2023-05-08T07:08:00.268Z,4.20
2023-05-08T07:10:27.451Z,4.10
2023-05-08T07:12:54.689Z,4.05
2023-05-08T07:15:26.653Z,4.40
2023-05-08T07:17:54.352Z,4.15
2023-05-08T07:20:22.054Z,4.20
2023-05-08T07:22:50.381Z,4.00
2023-05-08T07:25:17.515Z,4.15
2023-05-08T07:27:44.735Z,3.70
2023-05-08T07:30:12.186Z,4.03
2023-05-08T07:32:39.600Z,3.83
2023-05-08T07:35:11.318Z,3.83
2023-05-08T07:37:39.774Z,3.20
2023-05-08T07:40:07.577Z,3.63
2023-05-08T07:42:45.262Z,3.45
2023-05-08T07:45:14.154Z,3.35
2023-05-08T07:47:53.343Z,3.10
2023-05-08T07:50:21.719Z,3.65
2023-05-08T07:52:50.394Z,3.70
2023-05-08T07:55:19.119Z,3.50
2023-05-08T07:57:47.781Z,3.22
2023-05-08T08:00:15.970Z,3.40
2023-05-08T08:02:45.113Z,3.13
2023-05-08T08:05:13.006Z,3.30
2023-05-08T08:07:40.564Z,3.33
2023-05-08T08:10:10.389Z,3.50
2023-05-08T08:12:37.655Z,3.00
2023-05-08T08:15:06.220Z,3.50
2023-05-08T08:17:33.957Z,3.80
2023-05-08T08:20:01.513Z,3.67
2023-05-08T08:22:29.673Z,3.50
2023-05-08T08:24:56.999Z,3.30
2023-05-08T08:27:24.356Z,3.28
2023-05-08T08:29:58.461Z,3.40
2023-05-08T08:32:32.606Z,3.38
2023-05-08T08:34:59.992Z,3.30
2023-05-08T08:37:27.508Z,3.30
2023-05-08T08:39:54.744Z,3.88
2023-05-08T08:42:23.664Z,3.55
2023-05-08T08:44:51.478Z,3.22
2023-05-08T08:47:23.638Z,3.20
2023-05-08T08:49:51.450Z,3.17
2023-05-08T08:52:39.006Z,3.50
2023-05-08T08:55:08.500Z,3.28
2023-05-08T08:57:39.883Z,3.10
2023-05-08T09:00:08.533Z,3.10
2023-05-08T09:02:36.577Z,3.28
2023-05-08T09:05:04.116Z,2.85
2023-05-08T09:07:33.589Z,3.13
2023-05-08T09:10:01.109Z,3.22
2023-05-08T09:12:32.270Z,3.53
2023-05-08T09:14:59.559Z,3.47
2023-05-08T09:17:26.851Z,3.70
2023-05-08T09:19:54.117Z,3.00
2023-05-08T09:22:23.890Z,3.60
2023-05-08T09:25:01.586Z,3.33
2023-05-08T09:27:32.627Z,3.38
2023-05-08T09:30:05.927Z,3.70
2023-05-08T09:32:36.741Z,3.30
2023-05-08T09:35:05.551Z,3.65
2023-05-08T09:37:34.212Z,3.40
2023-05-08T09:40:22.137Z,3.47
2023-05-08T09:42:50.485Z,3.58
2023-05-08T09:45:32.969Z,3.40
2023-05-08T09:48:00.382Z,4.05
2023-05-08T09:50:27.958Z,3.42
2023-05-08T09:52:55.427Z,3.85
2023-05-08T09:55:22.798Z,3.53
2023-05-08T09:57:58.190Z,3.80
2023-05-08T10:00:27.148Z,3.80
2023-05-08T10:03:00.042Z,3.70
2023-05-08T10:05:32.948Z,3.50
2023-05-08T10:08:22.434Z,3.53
2023-05-08T10:10:50.838Z,3.50
2023-05-08T10:13:18.064Z,4.13
2023-05-08T10:15:45.912Z,3.55
2023-05-08T10:18:17.846Z,3.78
2023-05-08T10:20:48.439Z,3.78
2023-05-08T10:23:17.751Z,3.60
2023-05-08T10:25:54.731Z,3.70
2023-05-08T10:28:48.963Z,3.90
2023-05-08T10:31:18.837Z,3.53
2023-05-08T10:33:46.792Z,3.60
2023-05-08T10:36:15.046Z,3.72
2023-05-08T10:38:43.638Z,3.72
2023-05-08T10:41:11.520Z,4.20
2023-05-08T10:43:42.312Z,3.38
2023-05-08T10:46:51.448Z,3.50
2023-05-08T10:49:41.779Z,3.67
2023-05-08T10:52:39.589Z,3.40
2023-05-08T10:55:17.160Z,3.53
2023-05-08T10:58:12.567Z,3.92
2023-05-08T11:01:01.330Z,3.60
2023-05-08T11:03:31.951Z,3.67
2023-05-08T11:06:01.012Z,3.40
2023-05-08T11:08:29.366Z,3.25
2023-05-08T11:10:59.585Z,3.38
2023-05-08T11:13:38.018Z,2.78
2023-05-08T11:16:07.095Z,2.85
2023-05-08T11:18:48.347Z,3.10
2023-05-08T11:21:23.819Z,3.00
2023-05-08T11:23:59.320Z,2.72
2023-05-08T11:26:40.760Z,2.97
2023-05-08T11:29:17.724Z,2.90
2023-05-08T11:31:52.161Z,2.63
2023-05-08T11:34:44.443Z,2.83
2023-05-08T11:37:19.600Z,3.20
2023-05-08T11:39:51.009Z,3.05
2023-05-08T11:42:29.855Z,3.30
2023-05-08T11:45:16.746Z,3.25
2023-05-08T11:47:45.414Z,3.30
2023-05-08T11:50:13.981Z,2.70
2023-05-08T11:52:42.417Z,2.88
2023-05-08T11:55:11.417Z,2.92
2023-05-08T11:57:39.523Z,2.97
2023-05-08T12:00:12.222Z,2.75
2023-05-08T12:02:42.086Z,2.90
2023-05-08T12:05:11.359Z,3.28
2023-05-08T12:07:46.827Z,3.17
2023-05-08T12:12:44.250Z,2.88
2023-05-08T12:15:14.000Z,3.00
2023-05-08T12:17:42.576Z,2.90
2023-05-08T12:20:13.407Z,2.60
2023-05-08T12:22:42.041Z,3.00
2023-05-08T12:25:12.019Z,3.00
2023-05-08T12:27:39.692Z,2.63
2023-05-08T12:30:12.660Z,2.83
2023-05-08T12:32:44.072Z,3.00
2023-05-08T12:35:12.698Z,3.17
2023-05-08T12:37:40.587Z,3.00
2023-05-08T12:40:22.788Z,2.90
2023-05-08T12:42:51.086Z,2.90
2023-05-08T12:45:23.809Z,3.60
2023-05-08T12:47:53.211Z,3.20
2023-05-08T12:50:22.351Z,3.35
2023-05-08T12:52:51.517Z,3.17
2023-05-08T12:55:29.063Z,3.70
2023-05-08T12:58:15.646Z,3.97
2023-05-08T13:00:48.783Z,4.20
2023-05-08T13:03:27.686Z,4.05
2023-05-08T13:05:57.436Z,4.25
2023-05-08T13:08:34.668Z,4.60
2023-05-08T13:11:03.879Z,4.53
2023-05-08T13:13:32.779Z,4.47
2023-05-08T13:16:04.502Z,4.22
2023-05-08T13:18:32.625Z,4.55
2023-05-08T13:21:01.447Z,4.18
2023-05-08T13:23:29.326Z,4.30
2023-05-08T13:25:56.844Z,4.40
2023-05-08T13:28:24.119Z,3.70
2023-05-08T13:30:51.371Z,4.07
2023-05-08T13:33:18.753Z,3.83
2023-05-08T13:35:46.620Z,4.05
2023-05-08T13:38:15.348Z,3.92
2023-05-08T13:40:42.691Z,3.60
2023-05-08T13:43:11.675Z,3.88
2023-05-08T13:45:38.945Z,3.80
2023-05-08T13:48:06.551Z,3.75
2023-05-08T13:50:35.173Z,4.00
2023-05-08T13:53:02.311Z,3.88
2023-05-08T13:55:29.888Z,3.95
2023-05-08T13:57:58.267Z,3.65
2023-05-08T14:00:27.843Z,3.85
2023-05-08T14:02:55.615Z,4.25
2023-05-08T14:05:22.907Z,4.25
2023-05-08T14:07:49.961Z,4.70
2023-05-08T14:10:20.485Z,4.40
2023-05-08T14:12:47.655Z,4.90
2023-05-08T14:15:17.728Z,4.30
2023-05-08T14:17:45.003Z,4.90
2023-05-08T14:20:12.509Z,4.70
2023-05-08T14:22:40.380Z,5.63
2023-05-08T14:25:08.385Z,5.00
2023-05-08T14:27:35.703Z,5.07
2023-05-08T14:30:04.499Z,5.22
2023-05-08T14:32:36.164Z,5.15
2023-05-08T14:35:04.350Z,5.00
2023-05-08T14:37:33.856Z,4.82
2023-05-08T14:40:01.264Z,5.20
2023-05-08T14:42:31.684Z,5.07
2023-05-08T14:44:59.118Z,4.57
2023-05-08T14:47:27.363Z,4.40
2023-05-08T14:49:54.679Z,4.32
2023-05-08T14:52:21.896Z,3.72
2023-05-08T14:54:53.614Z,3.83
2023-05-08T14:57:21.379Z,3.83
2023-05-08T14:59:55.050Z,3.45
2023-05-08T15:02:25.209Z,3.20
2023-05-08T15:04:52.483Z,3.85
2023-05-08T15:07:19.557Z,3.25
2023-05-08T15:09:48.063Z,3.70
2023-05-08T15:12:15.198Z,4.05
2023-05-08T15:14:42.586Z,4.00
2023-05-08T15:17:10.382Z,3.88
2023-05-08T15:19:37.695Z,4.10
2023-05-08T15:22:05.099Z,4.15
2023-05-08T15:24:32.281Z,3.90
2023-05-08T15:27:00.528Z,4.13
2023-05-08T15:29:27.858Z,4.00
2023-05-08T15:31:55.269Z,4.60
2023-05-08T15:34:24.487Z,3.80
2023-05-08T15:36:53.838Z,3.65
2023-05-08T15:39:21.069Z,3.28
2023-05-08T15:41:48.161Z,2.90
2023-05-08T15:44:18.416Z,2.95
2023-05-08T15:46:45.644Z,2.78
2023-05-08T15:49:12.809Z,2.60
2023-05-08T15:51:40.436Z,2.80
2023-05-08T15:54:07.571Z,2.80
2023-05-08T15:56:35.327Z,2.58
2023-05-08T15:59:02.461Z,2.90
2023-05-08T16:01:29.808Z,2.60
2023-05-08T16:03:57.037Z,2.83
2023-05-08T16:06:24.224Z,2.90
2023-05-08T16:08:52.139Z,2.80
2023-05-08T16:11:19.837Z,2.50
2023-05-08T16:13:47.121Z,2.72
2023-05-08T16:16:14.573Z,2.85
2023-05-08T16:18:41.807Z,2.40
2023-05-08T16:21:12.241Z,2.97
2023-05-08T16:23:39.885Z,2.80
2023-05-08T16:26:07.840Z,2.80
2023-05-08T16:28:35.045Z,2.40
2023-05-08T16:31:03.014Z,2.97
2023-05-08T16:33:32.576Z,2.60
2023-05-08T16:35:59.887Z,2.70
2023-05-08T16:38:27.643Z,2.90
2023-05-08T16:40:54.966Z,3.30
2023-05-08T16:43:22.318Z,2.70
2023-05-08T16:45:51.628Z,3.15
2023-05-08T16:48:18.805Z,3.08
2023-05-08T16:50:46.422Z,2.80
2023-05-08T16:53:13.674Z,2.80
2023-05-08T16:55:41.505Z,2.33
2023-05-08T16:58:10.065Z,2.42
2023-05-08T17:00:37.517Z,2.75
2023-05-08T17:03:04.898Z,2.45
2023-05-08T17:05:32.348Z,2.53
2023-05-08T17:08:00.381Z,2.53
2023-05-08T17:10:27.482Z,2.78
2023-05-08T17:12:54.857Z,2.90
2023-05-08T17:15:22.031Z,2.83
2023-05-08T17:17:50.796Z,2.40
2023-05-08T17:20:18.198Z,2.22
2023-05-08T17:22:45.751Z,2.90
2023-05-08T17:25:13.083Z,2.80
2023-05-08T17:27:40.276Z,2.70
2023-05-08T17:30:11.877Z,2.67
2023-05-08T17:32:39.569Z,2.78
2023-05-08T17:35:07.890Z,2.85
2023-05-08T17:37:34.987Z,2.95
2023-05-08T17:40:02.557Z,2.90
2023-05-08T17:42:31.942Z,2.42
2023-05-08T17:44:59.435Z,2.67
2023-05-08T17:47:26.774Z,2.60
2023-05-08T17:49:54.023Z,2.70
2023-05-08T17:52:21.296Z,2.67
2023-05-08T17:54:50.835Z,3.38
2023-05-08T17:57:18.020Z,2.95
2023-05-08T17:59:45.396Z,2.53
2023-05-08T18:02:12.555Z,2.88
2023-05-08T18:04:40.029Z,2.47
2023-05-08T18:07:07.375Z,2.60
2023-05-08T18:09:34.464Z,2.67
2023-05-08T18:12:02.691Z,3.10
2023-05-08T18:14:34.443Z,2.72
2023-05-08T18:17:01.596Z,2.92
2023-05-08T18:19:28.850Z,2.60
2023-05-08T18:21:56.071Z,2.40
2023-05-08T18:24:23.354Z,3.28
2023-05-08T18:26:52.382Z,3.17
2023-05-08T18:29:19.900Z,2.80
2023-05-08T18:31:47.319Z,2.60
2023-05-08T18:34:14.673Z,2.78
2023-05-08T18:36:41.856Z,2.80
2023-05-08T18:39:09.026Z,2.80
2023-05-08T18:41:36.720Z,2.70
2023-05-08T18:44:05.903Z,2.70
2023-05-08T18:46:33.353Z,2.83
2023-05-08T18:49:00.795Z,2.70
2023-05-08T18:51:27.856Z,2.47
2023-05-08T18:53:57.285Z,3.03
2023-05-08T18:56:26.601Z,2.90
2023-05-08T18:58:54.948Z,3.25
2023-05-08T19:01:22.126Z,3.00
2023-05-08T19:03:49.616Z,3.03
2023-05-08T19:06:17.291Z,3.15
2023-05-08T19:08:44.769Z,3.00
2023-05-08T19:11:11.995Z,3.00
2023-05-08T19:13:39.279Z,3.15
2023-05-08T19:16:06.975Z,2.80
2023-05-08T19:18:34.370Z,3.05
2023-05-08T19:21:02.808Z,2.83
2023-05-08T19:23:30.211Z,3.00
2023-05-08T19:25:57.430Z,2.70
2023-05-08T19:28:24.630Z,3.10
2023-05-08T19:30:51.844Z,2.65
2023-05-08T19:33:20.921Z,2.92
2023-05-08T19:35:48.719Z,2.45
2023-05-08T19:38:16.214Z,2.63
2023-05-08T19:40:55.460Z,2.40
2023-05-08T19:43:28.064Z,2.70
2023-05-08T19:45:56.091Z,2.85
2023-05-08T19:48:23.782Z,2.15
2023-05-08T19:50:53.622Z,2.40
2023-05-08T19:53:22.867Z,2.65
2023-05-08T19:55:50.058Z,2.65
2023-05-08T19:58:18.095Z,2.50
2023-05-08T20:00:50.874Z,2.47
2023-05-08T20:03:19.243Z,2.70
2023-05-08T20:05:46.681Z,2.53
2023-05-08T20:08:14.041Z,2.33
2023-05-08T20:10:41.542Z,2.50
2023-05-08T20:13:09.389Z,2.25
2023-05-08T20:15:36.673Z,2.30
2023-05-08T20:18:03.967Z,2.33
2023-05-08T20:20:32.318Z,2.20
2023-05-08T20:22:59.442Z,2.20
2023-05-08T20:25:27.214Z,2.38
2023-05-08T20:27:54.723Z,2.30
2023-05-08T20:30:23.665Z,2.38
2023-05-08T20:32:51.191Z,2.40
2023-05-08T20:35:18.579Z,2.50
2023-05-08T20:37:47.403Z,2.35
2023-05-08T20:40:15.062Z,2.25
2023-05-08T20:42:42.718Z,2.50
2023-05-08T20:45:10.676Z,2.50
2023-05-08T20:47:37.971Z,2.33
2023-05-08T20:50:06.099Z,2.50
2023-05-08T20:52:35.144Z,2.20
2023-05-08T20:55:03.473Z,2.80
2023-05-08T20:57:31.484Z,2.20
2023-05-08T20:59:58.642Z,2.40
2023-05-08T21:02:25.970Z,2.38
2023-05-08T21:04:53.375Z,2.50
2023-05-08T21:07:20.656Z,2.40
2023-05-08T21:09:47.982Z,2.30
2023-05-08T21:12:15.121Z,2.38
2023-05-08T21:14:44.158Z,2.30
2023-05-08T21:17:11.383Z,2.28
2023-05-08T21:19:39.306Z,2.40
2023-05-08T21:22:09.386Z,2.40
2023-05-08T21:24:37.440Z,2.47
2023-05-08T21:27:04.681Z,2.20
2023-05-08T21:29:31.850Z,2.10
2023-05-08T21:31:59.001Z,2.45
2023-05-08T21:34:27.040Z,2.25
2023-05-08T21:36:54.391Z,2.30
2023-05-08T21:39:21.613Z,2.10
2023-05-08T21:41:48.979Z,2.17
2023-05-08T21:44:16.392Z,2.22
2023-05-08T21:46:43.790Z,2.30
2023-05-08T21:49:11.269Z,2.10
2023-05-08T21:51:38.419Z,2.22
2023-05-08T21:54:05.837Z,2.42
2023-05-08T21:56:32.951Z,2.33
2023-05-08T21:59:00.035Z,2.20
2023-05-08T22:01:27.381Z,2.30
2023-05-08T22:03:54.901Z,2.20
2023-05-08T22:06:22.290Z,2.40
2023-05-08T22:08:49.545Z,2.20
2023-05-08T22:11:16.822Z,2.20
2023-05-08T22:13:43.999Z,2.40
2023-05-08T22:16:11.157Z,2.28
2023-05-08T22:18:38.251Z,2.30
2023-05-08T22:21:05.936Z,2.45
2023-05-08T22:23:36.222Z,2.35
2023-05-08T22:26:03.615Z,2.38
2023-05-08T22:28:30.879Z,2.10
2023-05-08T22:30:58.174Z,2.20
2023-05-08T22:33:25.598Z,1.90
2023-05-08T22:35:52.743Z,2.60
2023-05-08T22:38:19.977Z,2.15
2023-05-08T22:40:47.864Z,2.20
2023-05-08T22:43:15.255Z,2.17
2023-05-08T22:45:42.422Z,2.30
2023-05-08T22:48:10.602Z,2.33
2023-05-08T22:50:37.908Z,2.30
2023-05-08T22:53:08.142Z,2.40
2023-05-08T22:55:35.972Z,2.35
2023-05-08T22:58:04.132Z,2.22
2023-05-08T23:00:31.374Z,2.17
2023-05-08T23:02:59.255Z,2.30
2023-05-08T23:05:26.830Z,2.40
2023-05-08T23:07:53.977Z,2.38
2023-05-08T23:10:21.188Z,2.20
2023-05-08T23:12:49.925Z,2.72
2023-05-08T23:15:17.220Z,2.10
2023-05-08T23:17:44.725Z,2.10
2023-05-08T23:20:12.154Z,2.10
2023-05-08T23:22:39.317Z,2.22
2023-05-08T23:25:10.653Z,2.13
2023-05-08T23:27:38.165Z,2.17
2023-05-08T23:30:06.314Z,2.17
2023-05-08T23:32:33.647Z,2.22
2023-05-08T23:35:00.966Z,2.20
2023-05-08T23:37:28.144Z,2.30
2023-05-08T23:39:55.380Z,2.10
2023-05-08T23:42:22.568Z,2.20
2023-05-08T23:44:49.704Z,2.30
2023-05-08T23:47:19.419Z,2.35
2023-05-08T23:49:47.014Z,2.35
2023-05-08T23:52:14.470Z,2.38
2023-05-08T23:54:41.759Z,2.40
2023-05-08T23:57:09.012Z,2.42
2023-05-08T23:59:36.194Z,2.20
